Terminal Aerodrome Forecast
Issued by NWS

Home | Current Version | Previous Version | Graphics & Text | Print | Product List | Glossary On
Versions: 1 2 3 4 5 6 7 8 9 10 11 12 13 14 15 16 17 18 19 20 21
000
FTUS41 KCLE 181700
TAFFDY
TAF
KFDY 181726Z 1818/1918 05010KT P6SM FEW050 SCT250
     FM182000 05012G20KT P6SM FEW050 BKN250
     FM190000 06012KT P6SM BKN200
     FM191700 12012G20KT P6SM VCSH BKN060 OVC100=

USA.gov is the U.S. government's official web portal to all federal, state and local government web resources and services.